Terminal Aerodrome Forecast
Issued by NWS Mt. Holly, NJ

Home | Current Version | Previous Version | Text Only | Print | Product List | Glossary On
Versions: 1 2 3 4 5 6 7 8 9 10 11 12 13 14 15 16 17 18
000
FTUS41 KPHI 210200 AAB
TAFTTN
TAF AMD
KTTN 210218Z 2102/2124 00000KT P6SM BKN035
      TEMPO 2102/2104 BKN030
     FM210600 00000KT P6SM BKN035 BKN120
     FM211300 35003KT P6SM BKN035 BKN120
     FM211600 36005KT P6SM SCT040=

USA.gov is the U.S. government's official web portal to all federal, state and local government web resources and services.